Time;durP1;ratioP1;P1;durP2;ratioP2;P2;SDS_P1;SDS_P2;PMS_P1;PMS_P2;Temp;Humidity;BMP_temperature;BMP_pressure;BME280_temperature;BME280_humidity;BME280_pressure;Samples;Min_cycle;Max_cycle;Signal;HPM_P1;HPM_P2
2022/10/10 00:02:25;;;;;;;11.32;8.50;;;;;;;15.04;100.00;100862.81;5091191;28;20024;-78
2022/10/10 00:04:52;;;;;;;10.85;8.02;;;;;;;14.72;100.00;100865.56;5092046;28;20032;-77
2022/10/10 00:07:18;;;;;;;12.20;8.20;;;;;;;14.48;100.00;100794.66;5091822;28;20028;-77
2022/10/10 00:09:44;;;;;;;9.63;7.90;;;;;;;14.62;100.00;100823.19;5091821;28;20508;-79
2022/10/10 00:12:10;;;;;;;9.07;7.97;;;;;;;14.64;100.00;100789.00;5091887;28;20024;-82
2022/10/10 00:14:35;;;;;;;11.77;7.85;;;;;;;14.68;100.00;100858.84;5091945;28;20489;-81
2022/10/10 00:17:01;;;;;;;10.38;7.53;;;;;;;14.77;100.00;100867.09;5092243;28;20093;-81
2022/10/10 00:19:26;;;;;;;8.93;7.45;;;;;;;14.16;100.00;100792.19;5090682;28;20085;-79
2022/10/10 00:21:51;;;;;;;11.63;8.02;;;;;;;14.48;100.00;100804.91;5090417;28;20039;-79
2022/10/10 00:24:17;;;;;;;9.13;8.13;;;;;;;14.01;100.00;100780.69;5091806;28;20038;-80
2022/10/10 00:26:42;;;;;;;12.90;7.97;;;;;;;14.28;100.00;100776.53;5091679;28;20734;-76
2022/10/10 00:29:08;;;;;;;11.15;8.45;;;;;;;14.56;100.00;100854.94;5092276;28;20024;-80
2022/10/10 00:31:33;;;;;;;10.65;8.40;;;;;;;13.99;100.00;100809.72;5091554;28;20032;-79
2022/10/10 00:33:58;;;;;;;10.60;8.60;;;;;;;14.73;100.00;100852.72;5091440;28;20093;-81
2022/10/10 00:36:24;;;;;;;9.80;8.63;;;;;;;14.78;100.00;100875.59;5090337;28;20039;-81
2022/10/10 00:38:49;;;;;;;11.95;9.32;;;;;;;14.43;100.00;100870.72;5090990;28;20302;-81
2022/10/10 00:41:14;;;;;;;12.90;9.98;;;;;;;13.63;100.00;100794.53;5091064;28;20039;-79
2022/10/10 00:43:40;;;;;;;11.43;10.18;;;;;;;14.08;100.00;100827.38;5091712;28;20184;-81
2022/10/10 00:46:06;;;;;;;11.52;9.95;;;;;;;14.20;100.00;100873.06;5090804;28;20444;-79
2022/10/10 00:48:34;;;;;;;12.38;9.63;;;;;;;14.18;100.00;100874.84;5092028;28;20020;-80
2022/10/10 00:51:15;;;;;;;14.50;9.82;;;;;;;13.92;100.00;100866.16;5091865;28;20073;-80
2022/10/10 00:53:45;;;;;;;13.27;10.48;;;;;;;13.82;100.00;100872.41;5091604;28;20035;-80
2022/10/10 00:56:12;;;;;;;12.10;10.18;;;;;;;13.48;100.00;100814.56;5094353;28;20036;-81
2022/10/10 00:58:41;;;;;;;14.25;9.57;;;;;;;13.35;100.00;100811.47;5095249;28;20039;-81
2022/10/10 01:01:07;;;;;;;14.02;10.80;;;;;;;13.59;100.00;100890.03;5095225;28;20483;-81
2022/10/10 01:03:32;;;;;;;13.43;9.52;;;;;;;13.15;100.00;100836.72;5093759;28;20087;-80
2022/10/10 01:05:57;;;;;;;12.40;10.35;;;;;;;12.85;100.00;100822.09;5095004;28;20028;-80
2022/10/10 01:08:23;;;;;;;13.00;9.07;;;;;;;13.53;100.00;100879.97;5095117;28;20085;-84
2022/10/10 01:11:15;;;;;;;15.93;9.60;;;;;;;13.65;100.00;100869.44;5093544;28;20034;-78
2022/10/10 01:13:46;;;;;;;10.80;8.95;;;;;;;13.46;100.00;100888.69;5093889;28;20085;-80
2022/10/10 01:16:28;;;;;;;11.75;9.18;;;;;;;13.79;100.00;100885.25;5095019;28;20038;-79
2022/10/10 01:19:18;;;;;;;12.18;8.60;;;;;;;13.45;100.00;100892.09;5094835;28;20486;-79
2022/10/10 01:22:01;;;;;;;11.48;8.85;;;;;;;13.24;100.00;100885.00;5095035;28;20034;-79
2022/10/10 01:24:50;;;;;;;13.32;9.40;;;;;;;13.06;100.00;100880.31;5094707;28;20543;-78
2022/10/10 01:27:40;;;;;;;11.73;9.02;;;;;;;12.83;100.00;100837.44;5095212;28;20042;-78
2022/10/10 01:30:09;;;;;;;11.15;9.00;;;;;;;12.96;100.00;100823.50;5093469;28;20031;-81
2022/10/10 01:32:41;;;;;;;11.70;8.93;;;;;;;13.35;100.00;100903.44;5094743;28;20024;-77
2022/10/10 01:35:43;;;;;;;11.77;9.23;;;;;;;13.17;100.00;100901.34;5094586;28;20032;-82
2022/10/10 01:38:20;;;;;;;15.00;9.52;;;;;;;13.51;100.00;100914.94;5094632;28;20028;-84
2022/10/10 01:41:02;;;;;;;13.73;9.27;;;;;;;13.28;100.00;100850.84;5094315;28;20048;-81
2022/10/10 01:43:28;;;;;;;;;;;;;;;13.56;100.00;100909.72;5094803;28;20506;-78
2022/10/10 01:45:54;;;;;;;17.05;10.20;;;;;;;13.40;100.00;100901.63;5094503;28;19919;-81
2022/10/10 01:48:30;;;;;;;16.80;9.60;;;;;;;13.33;100.00;100886.47;5094159;28;20106;-77
2022/10/10 01:51:14;;;;;;;15.77;9.60;;;;;;;13.70;100.00;100918.75;5093113;28;20024;-78
2022/10/10 01:53:50;;;;;;;14.65;10.23;;;;;;;13.35;100.00;100921.31;5094220;28;20043;-79
2022/10/10 01:56:39;;;;;;;16.50;10.65;;;;;;;13.56;100.00;100917.41;5094293;28;20043;-77
2022/10/10 01:59:14;;;;;;;15.63;10.88;;;;;;;13.38;100.00;100928.06;5093316;28;20032;-80
2022/10/10 02:01:55;;;;;;;16.45;11.10;;;;;;;13.43;100.00;100927.06;5094291;28;20091;-79
2022/10/10 02:04:26;;;;;;;14.03;10.10;;;;;;;13.59;100.00;100930.94;5093444;28;20060;-75
2022/10/10 02:06:58;;;;;;;23.77;11.77;;;;;;;13.61;100.00;100936.84;5093872;28;20020;-79
2022/10/10 02:09:33;;;;;;;16.13;11.73;;;;;;;13.49;100.00;100942.25;5094348;28;20050;-79
2022/10/10 02:12:00;;;;;;;15.32;11.82;;;;;;;13.36;100.00;100923.00;5092965;28;20514;-75
2022/10/10 02:14:32;;;;;;;20.48;12.50;;;;;;;12.73;100.00;100898.91;5093146;28;20032;-76
2022/10/10 02:16:59;;;;;;;24.15;14.75;;;;;;;13.19;100.00;100958.31;5094073;28;20032;-78
2022/10/10 02:19:26;;;;;;;20.50;15.05;;;;;;;13.04;100.00;100949.28;5093684;28;20035;-77
2022/10/10 02:21:54;;;;;;;21.90;15.05;;;;;;;12.82;100.00;100898.69;5093701;28;20565;-76
2022/10/10 02:24:22;;;;;;;20.77;15.13;;;;;;;12.65;100.00;100903.34;5093811;28;20038;-76
2022/10/10 02:26:55;;;;;;;22.25;15.50;;;;;;;12.91;100.00;100968.25;5092941;28;20105;-76
2022/10/10 02:29:27;;;;;;;22.58;14.45;;;;;;;12.52;100.00;100958.88;5092849;28;20080;-76
2022/10/10 02:32:04;;;;;;;20.67;14.00;;;;;;;12.44;100.00;100914.00;5108205;28;20051;-78
2022/10/10 02:34:36;;;;;;;20.02;14.05;;;;;;;12.19;100.00;100911.94;5096643;28;20563;-78
2022/10/10 02:37:05;;;;;;;23.67;15.15;;;;;;;12.25;100.00;100977.28;5093759;28;20031;-76
2022/10/10 02:39:35;;;;;;;25.50;19.75;;;;;;;11.31;100.00;100860.88;5088079;28;21195;-76
2022/10/10 02:42:04;;;;;;;29.55;22.08;;;;;;;11.52;100.00;100975.13;5093362;28;20067;-75
2022/10/10 02:44:31;;;;;;;28.65;21.60;;;;;;;11.99;100.00;100977.75;5092382;28;20482;-75
2022/10/10 02:46:56;;;;;;;26.33;21.02;;;;;;;12.06;100.00;100979.31;5091879;28;20035;-79
2022/10/10 02:49:27;;;;;;;24.25;20.38;;;;;;;11.74;100.00;100920.44;5093087;28;20024;-76
2022/10/10 02:51:52;;;;;;;29.35;20.65;;;;;;;12.44;100.00;100988.78;5092690;28;20028;-76
2022/10/10 02:54:18;;;;;;;32.10;22.90;;;;;;;12.04;100.00;100991.22;5093448;28;20038;-76
2022/10/10 02:56:43;;;;;;;29.15;22.67;;;;;;;11.72;100.00;100934.91;5092069;28;20032;-78
2022/10/10 02:59:09;;;;;;;26.10;19.38;;;;;;;11.92;100.00;101005.91;5092274;28;20028;-76
2022/10/10 03:01:34;;;;;;;28.20;17.85;;;;;;;11.51;100.00;100954.78;5093179;28;20035;-75
2022/10/10 03:04:00;;;;;;;31.70;16.15;;;;;;;11.79;100.00;100925.44;5093414;28;20028;-78
2022/10/10 03:06:25;;;;;;;25.02;14.65;;;;;;;11.85;100.00;100925.34;5091816;28;20020;-77
2022/10/10 03:08:51;;;;;;;25.25;15.52;;;;;;;12.03;100.00;101014.22;5093115;28;20043;-78
2022/10/10 03:11:16;;;;;;;26.38;14.90;;;;;;;11.74;100.00;100947.63;5092549;28;20524;-81
2022/10/10 03:13:43;;;;;;;22.77;14.50;;;;;;;12.22;100.00;100944.19;5113650;28;20080;-82
2022/10/10 03:16:08;;;;;;;24.95;15.75;;;;;;;12.34;100.00;101009.41;5113245;28;20027;-82
2022/10/10 03:18:34;;;;;;;18.25;14.05;;;;;;;12.40;100.00;100928.50;5112465;28;20034;-79
2022/10/10 03:20:59;;;;;;;21.35;14.73;;;;;;;12.29;100.00;100957.66;5113192;28;20500;-78
2022/10/10 03:23:25;;;;;;;20.38;14.38;;;;;;;12.40;100.00;101004.19;5112430;28;20062;-80
2022/10/10 03:25:50;;;;;;;20.80;15.32;;;;;;;12.50;100.00;101011.63;5113193;28;20030;-79
2022/10/10 03:28:16;;;;;;;22.50;15.18;;;;;;;12.30;100.00;100941.50;5113043;28;20053;-79
2022/10/10 03:30:41;;;;;;;19.92;14.40;;;;;;;12.61;100.00;100988.47;5107748;28;20119;-78
2022/10/10 03:33:07;;;;;;;23.65;15.15;;;;;;;12.39;100.00;100965.09;5104964;28;20059;-79
2022/10/10 03:35:33;;;;;;;23.42;14.95;;;;;;;12.94;100.00;101016.69;5112756;28;20034;-78
2022/10/10 03:37:58;;;;;;;19.58;15.15;;;;;;;12.24;100.00;100906.72;5111872;28;20416;-75
2022/10/10 03:40:25;;;;;;;22.73;16.27;;;;;;;12.64;100.00;100960.31;5111744;28;20055;-74
2022/10/10 03:42:51;;;;;;;25.83;17.77;;;;;;;12.64;100.00;101011.34;5110265;28;20046;-81
2022/10/10 03:45:16;;;;;;;31.35;18.35;;;;;;;12.27;100.00;100959.38;5111623;28;20054;-77
2022/10/10 03:47:41;;;;;;;24.33;18.48;;;;;;;12.63;100.00;101010.53;5109692;28;20406;-77
2022/10/10 03:50:07;;;;;;;25.02;17.83;;;;;;;12.59;100.00;101013.16;5112275;28;20156;-81
2022/10/10 03:52:33;;;;;;;27.50;17.83;;;;;;;12.59;100.00;101010.63;5112657;28;20394;-81
2022/10/10 03:54:58;;;;;;;28.38;15.48;;;;;;;12.56;100.00;101011.50;5112121;28;20020;-78
2022/10/10 03:57:23;;;;;;;24.27;15.20;;;;;;;12.28;100.00;100964.44;5111976;28;20035;-74
2022/10/10 03:59:49;;;;;;;18.48;12.77;;;;;;;14.23;100.00;101009.38;5112123;28;20498;-77
2022/10/10 04:02:14;;;;;;;20.08;14.57;;;;;;;12.50;100.00;100945.31;5111974;28;20039;-75
2022/10/10 04:04:40;;;;;;;23.10;14.35;;;;;;;12.55;100.00;100957.97;5112283;28;20172;-79
2022/10/10 04:07:05;;;;;;;33.70;15.13;;;;;;;12.48;100.00;100948.78;5111011;28;20024;-73
2022/10/10 04:09:30;;;;;;;21.83;14.95;;;;;;;12.62;100.00;101008.00;5110878;28;20118;-74
2022/10/10 04:11:58;;;;;;;17.10;13.23;;;;;;;12.65;100.00;101013.91;5112318;28;20050;-74
2022/10/10 04:14:24;;;;;;;23.13;13.65;;;;;;;12.92;100.00;101005.69;5101130;28;20028;-75
2022/10/10 04:16:49;;;;;;;15.55;12.82;;;;;;;12.64;100.00;101017.31;5091905;28;20376;-82
2022/10/10 04:19:14;;;;;;;17.08;12.98;;;;;;;12.67;100.00;101030.03;5091808;28;20036;-81
2022/10/10 04:21:40;;;;;;;14.60;11.65;;;;;;;12.81;100.00;101027.19;5091527;28;20111;-77
2022/10/10 04:24:05;;;;;;;14.52;12.02;;;;;;;12.43;100.00;101039.84;5098007;28;20059;-77
2022/10/10 04:26:31;;;;;;;16.50;11.18;;;;;;;12.42;100.00;100952.28;5112145;28;20555;-76
2022/10/10 04:28:57;;;;;;;14.45;12.18;;;;;;;12.72;100.00;101037.56;5106750;28;20020;-76
2022/10/10 04:31:23;;;;;;;15.32;12.18;;;;;;;12.24;100.00;101030.84;5115373;28;20076;-73
2022/10/10 04:33:48;;;;;;;14.20;11.70;;;;;;;12.22;100.00;101045.31;5115872;28;20027;-76
2022/10/10 04:36:14;;;;;;;15.27;12.40;;;;;;;12.21;100.00;101041.94;5116196;28;20059;-72
2022/10/10 04:38:39;;;;;;;26.52;12.82;;;;;;;12.41;100.00;101039.03;5110378;28;20410;-80
2022/10/10 04:41:04;;;;;;;15.45;12.63;;;;;;;12.38;100.00;101036.53;5094139;28;20047;-79
2022/10/10 04:43:30;;;;;;;14.95;11.70;;;;;;;12.98;100.00;101055.75;5103647;28;20036;-78
2022/10/10 04:45:57;;;;;;;16.05;12.02;;;;;;;13.05;100.00;101063.28;5095408;28;20444;-79
2022/10/10 04:48:22;;;;;;;16.33;12.10;;;;;;;12.88;100.00;101015.97;5094624;28;20028;-79
2022/10/10 04:50:56;;;;;;;14.98;11.55;;;;;;;13.12;100.00;101068.25;5095687;28;20082;-80
2022/10/10 04:53:21;;;;;;;15.57;12.15;;;;;;;12.59;100.00;101005.53;5095536;28;20050;-78
2022/10/10 04:55:47;;;;;;;20.90;11.68;;;;;;;13.45;100.00;101076.03;5095247;28;20020;-79
2022/10/10 04:58:12;;;;;;;15.52;11.73;;;;;;;12.79;100.00;101014.47;5095164;28;20040;-79
2022/10/10 05:00:38;;;;;;;16.25;13.13;;;;;;;14.02;100.00;101045.75;5094446;28;20100;-79
2022/10/10 05:03:04;;;;;;;18.27;12.95;;;;;;;14.81;100.00;101080.34;5094664;28;20470;-80
2022/10/10 05:05:30;;;;;;;18.63;13.43;;;;;;;15.26;100.00;101068.78;5094291;28;20040;-80
2022/10/10 05:07:55;;;;;;;19.30;13.60;;;;;;;14.63;100.00;101091.09;5094292;28;20036;-81
2022/10/10 05:10:21;;;;;;;16.70;12.98;;;;;;;15.63;100.00;101079.63;5094783;28;20032;-79
2022/10/10 05:12:47;;;;;;;15.77;12.38;;;;;;;14.95;100.00;101031.31;5094714;28;20035;-78
2022/10/10 05:15:13;;;;;;;15.48;13.10;;;;;;;15.52;100.00;101104.78;5094883;28;20036;-79
2022/10/10 05:17:38;;;;;;;19.80;13.48;;;;;;;15.44;100.00;101109.28;5095035;28;20032;-79
2022/10/10 05:20:04;;;;;;;20.33;12.98;;;;;;;15.21;100.00;101113.38;5094126;28;20099;-80
2022/10/10 05:22:30;;;;;;;18.67;13.48;;;;;;;16.11;100.00;101113.16;5094731;28;20619;-77
2022/10/10 05:24:57;;;;;;;20.38;12.77;;;;;;;16.53;100.00;101136.59;5093407;28;20055;-79
2022/10/10 05:27:23;;;;;;;17.27;12.68;;;;;;;15.77;100.00;101039.91;5093774;28;20291;-78
2022/10/10 05:29:48;;;;;;;29.17;13.07;;;;;;;17.04;100.00;101101.38;5094597;28;20053;-77
2022/10/10 05:32:14;;;;;;;19.60;12.90;;;;;;;15.58;100.00;101099.47;5094474;28;20121;-78
2022/10/10 05:34:39;;;;;;;23.45;13.68;;;;;;;16.56;100.00;101153.63;5094347;28;20028;-79
2022/10/10 05:37:04;;;;;;;19.98;13.55;;;;;;;16.99;100.00;101172.66;5094308;28;20524;-78
2022/10/10 05:39:30;;;;;;;22.67;14.25;;;;;;;15.67;100.00;101088.06;5094152;28;20024;-78
2022/10/10 05:41:55;;;;;;;23.85;13.85;;;;;;;14.93;100.00;101136.34;5093496;28;20114;-79
2022/10/10 05:44:20;;;;;;;28.73;16.65;;;;;;;14.70;100.00;101087.47;5094859;28;20078;-79
2022/10/10 05:46:46;;;;;;;23.75;14.98;;;;;;;14.31;100.00;101074.00;5094291;28;20063;-82
2022/10/10 05:49:11;;;;;;;18.23;12.93;;;;;;;14.71;100.00;101145.47;5094442;28;20032;-81
2022/10/10 05:51:37;;;;;;;31.92;17.58;;;;;;;14.83;100.00;101090.53;5093924;28;20039;-77
2022/10/10 05:54:03;;;;;;;25.17;17.13;;;;;;;14.76;100.00;101057.44;5094233;28;20032;-78
2022/10/10 05:56:29;;;;;;;21.33;16.05;;;;;;;15.46;100.00;101142.56;5094500;28;20067;-78
2022/10/10 05:58:54;;;;;;;21.40;14.35;;;;;;;15.37;100.00;101141.06;5092938;28;20062;-79
2022/10/10 06:01:20;;;;;;;19.55;13.43;;;;;;;15.20;100.00;101122.78;5093976;28;20039;-78
2022/10/10 06:03:51;;;;;;;18.35;14.32;;;;;;;15.67;100.00;101152.16;5094099;28;20135;-79
2022/10/10 06:06:17;;;;;;;18.85;13.77;;;;;;;15.92;100.00;101155.69;5092804;28;20032;-80
2022/10/10 06:08:43;;;;;;;19.25;15.38;;;;;;;15.89;100.00;101152.34;5093997;28;20490;-79
2022/10/10 06:11:10;;;;;;;21.50;15.88;;;;;;;15.49;100.00;101083.50;5094027;28;20028;-78
2022/10/10 06:13:36;;;;;;;20.80;15.77;;;;;;;15.72;100.00;101119.53;5094281;28;20089;-79
2022/10/10 06:16:02;;;;;;;22.02;14.95;;;;;;;15.68;100.00;101120.53;5093882;28;20043;-79
2022/10/10 06:18:27;;;;;;;19.73;14.38;;;;;;;16.51;100.00;101152.94;5093846;28;20028;-81
2022/10/10 06:20:53;;;;;;;20.20;13.93;;;;;;;16.18;100.00;101137.72;5092227;28;20036;-80
2022/10/10 06:23:19;;;;;;;21.80;14.38;;;;;;;16.32;100.00;101122.72;5092742;28;20161;-79
2022/10/10 06:25:45;;;;;;;23.55;15.63;;;;;;;16.84;100.00;101155.19;5093433;28;20032;-79
2022/10/10 06:28:12;;;;;;;22.27;14.77;;;;;;;16.48;100.00;101087.97;5093754;28;20035;-78
2022/10/10 06:30:42;;;;;;;18.73;14.95;;;;;;;17.16;100.00;101170.31;5092464;28;20028;-77
2022/10/10 06:33:08;;;;;;;22.33;14.43;;;;;;;16.36;100.00;101118.34;5092110;28;20030;-78
2022/10/10 06:35:43;;;;;;;17.13;14.13;;;;;;;15.87;100.00;101065.19;5093760;28;20078;-79
2022/10/10 06:38:09;;;;;;;18.00;14.27;;;;;;;16.20;100.00;101105.13;5093705;28;20419;-79
2022/10/10 06:40:34;;;;;;;21.48;14.55;;;;;;;16.75;100.00;101183.78;5093511;28;20052;-78
2022/10/10 06:43:00;;;;;;;25.02;16.70;;;;;;;16.93;100.00;101070.09;5093221;28;20042;-79
2022/10/10 06:45:25;;;;;;;19.75;14.90;;;;;;;16.86;100.00;101124.31;5093412;28;20528;-78
2022/10/10 06:47:51;;;;;;;21.77;15.27;;;;;;;16.66;100.00;101181.50;5093036;28;20031;-79
2022/10/10 06:50:16;;;;;;;24.92;15.05;;;;;;;17.53;100.00;101112.44;5092625;28;20119;-77
2022/10/10 06:52:41;;;;;;;20.33;14.18;;;;;;;17.52;100.00;101144.19;5093310;28;20038;-79
2022/10/10 06:55:07;;;;;;;21.05;14.35;;;;;;;17.33;100.00;101191.13;5093076;28;20024;-79
2022/10/10 06:57:33;;;;;;;18.42;14.07;;;;;;;18.19;100.00;101184.41;5092887;28;20114;-78
2022/10/10 06:59:58;;;;;;;20.50;14.27;;;;;;;17.49;100.00;101188.84;5092355;28;20375;-80
2022/10/10 07:02:24;;;;;;;19.23;13.93;;;;;;;17.94;100.00;101178.56;5093187;28;20468;-78
2022/10/10 07:04:49;;;;;;;20.73;14.07;;;;;;;17.77;100.00;101116.63;5092961;28;20024;-79
2022/10/10 07:07:15;;;;;;;17.25;13.95;;;;;;;17.98;100.00;101180.97;5092703;28;20031;-77
2022/10/10 07:09:41;;;;;;;20.85;14.05;;;;;;;17.80;100.00;101134.53;5093381;28;20024;-78
2022/10/10 07:12:06;;;;;;;18.98;14.20;;;;;;;18.01;100.00;101183.41;5093228;28;20127;-78
2022/10/10 07:14:32;;;;;;;17.17;14.30;;;;;;;17.40;100.00;101136.91;5091995;28;20027;-77
2022/10/10 07:16:57;;;;;;;21.45;15.55;;;;;;;18.42;100.00;101174.03;5093110;28;20028;-77
2022/10/10 07:19:23;;;;;;;19.50;14.07;;;;;;;18.57;100.00;101167.44;5093182;28;20028;-79
2022/10/10 07:21:49;;;;;;;21.33;14.48;;;;;;;18.95;100.00;101195.88;5092353;28;20032;-79
2022/10/10 07:24:15;;;;;;;26.48;15.50;;;;;;;18.93;100.00;101134.97;5091508;28;20558;-77
2022/10/10 07:26:41;;;;;;;19.55;13.88;;;;;;;18.22;100.00;101186.88;5092967;28;20027;-78
2022/10/10 07:29:06;;;;;;;20.13;15.15;;;;;;;18.99;100.00;101194.78;5092808;28;20441;-79
2022/10/10 07:31:32;;;;;;;18.48;14.43;;;;;;;18.43;100.00;101185.19;5092168;28;20106;-76
2022/10/10 07:33:57;;;;;;;18.80;14.55;;;;;;;18.12;100.00;101141.81;5092411;28;20031;-79
2022/10/10 07:36:23;;;;;;;25.02;15.98;;;;;;;19.05;100.00;101183.41;5092776;28;20032;-78
2022/10/10 07:38:53;;;;;;;20.90;14.95;;;;;;;18.81;100.00;101193.03;5091806;28;20036;-78
2022/10/10 07:41:19;;;;;;;20.13;14.45;;;;;;;19.59;100.00;101169.84;5091983;28;20040;-77
2022/10/10 07:43:45;;;;;;;18.67;14.10;;;;;;;19.17;100.00;101187.19;5092499;28;20020;-78
2022/10/10 07:46:18;;;;;;;17.58;13.57;;;;;;;18.64;100.00;101132.81;5092598;28;20108;-81
2022/10/10 07:48:44;;;;;;;15.38;13.05;;;;;;;18.48;100.00;101189.25;5091114;28;20035;-79
2022/10/10 07:51:10;;;;;;;16.00;13.05;;;;;;;19.50;100.00;101168.50;5091013;28;20024;-79
2022/10/10 07:53:36;;;;;;;17.52;12.52;;;;;;;19.21;100.00;101114.78;5092061;28;20028;-80
2022/10/10 07:56:05;;;;;;;16.77;12.60;;;;;;;19.24;100.00;101175.69;5092228;28;20028;-81
2022/10/10 07:58:35;;;;;;;16.35;12.57;;;;;;;19.88;100.00;101174.47;5091972;28;20028;-79
2022/10/10 08:01:05;;;;;;;17.02;13.63;;;;;;;19.68;100.00;101177.13;5092208;28;20032;-77
2022/10/10 08:03:31;;;;;;;21.77;13.25;;;;;;;20.35;100.00;101149.78;5091850;28;20020;-76
2022/10/10 08:05:56;;;;;;;19.85;14.45;;;;;;;19.69;100.00;101116.84;5091138;28;20042;-79
2022/10/10 08:08:22;;;;;;;19.02;13.30;;;;;;;20.23;100.00;101165.91;5090975;28;20028;-80
2022/10/10 08:10:47;;;;;;;16.23;12.90;;;;;;;19.98;100.00;101165.38;5091958;28;20028;-80
2022/10/10 08:13:13;;;;;;;14.88;12.65;;;;;;;19.88;100.00;101099.59;5091898;28;20024;-80
2022/10/10 08:15:39;;;;;;;18.88;12.93;;;;;;;19.25;100.00;101102.59;5091960;28;20498;-81
2022/10/10 08:18:05;;;;;;;17.80;12.65;;;;;;;20.60;100.00;101111.47;5091959;28;20465;-81
2022/10/10 08:20:30;;;;;;;19.02;12.75;;;;;;;20.52;100.00;101136.84;5090854;28;20119;-78
2022/10/10 08:22:56;;;;;;;16.55;12.52;;;;;;;20.67;100.00;101161.09;5090399;28;20036;-80
2022/10/10 08:25:22;;;;;;;18.80;12.82;;;;;;;20.15;100.00;101105.16;5092338;28;20111;-78
2022/10/10 08:27:47;;;;;;;16.33;12.82;;;;;;;20.58;100.00;101156.41;5092421;28;20028;-81
2022/10/10 08:30:13;;;;;;;17.20;12.88;;;;;;;20.88;100.00;101103.13;5092402;28;20387;-77
2022/10/10 08:32:38;;;;;;;17.80;12.73;;;;;;;20.92;100.00;101155.53;5090173;28;20123;-79
2022/10/10 08:35:04;;;;;;;24.02;12.32;;;;;;;19.95;100.00;101154.38;5091746;28;20021;-78
2022/10/10 08:37:29;;;;;;;15.20;11.60;;;;;;;19.98;100.00;101146.47;5091539;28;20028;-77
2022/10/10 08:39:55;;;;;;;15.75;11.60;;;;;;;20.22;100.00;101110.00;5090495;28;20486;-80
2022/10/10 08:42:32;;;;;;;15.77;10.82;;;;;;;20.41;100.00;101081.47;5090485;28;20527;-78
2022/10/10 08:45:03;;;;;;;16.92;11.40;;;;;;;19.78;100.00;101095.78;5091441;28;20114;-79
2022/10/10 08:47:54;;;;;;;14.43;11.15;;;;;;;20.36;100.00;101148.06;5090341;28;20034;-80
2022/10/10 08:50:26;;;;;;;16.92;12.18;;;;;;;20.23;100.00;101150.41;5091660;28;20062;-72
2022/10/10 08:52:54;;;;;;;17.20;11.88;;;;;;;20.91;100.00;101156.44;5091720;28;20043;-80
2022/10/10 08:55:31;;;;;;;15.38;10.77;;;;;;;21.26;100.00;101158.03;5090634;28;20478;-74
2022/10/10 08:57:58;;;;;;;16.55;10.55;;;;;;;20.85;100.00;101159.34;5092048;28;20066;-82
2022/10/10 09:00:31;;;;;;;15.63;10.93;;;;;;;21.05;100.00;101154.00;5091302;28;20038;-81
2022/10/10 09:02:59;;;;;;;18.33;11.70;;;;;;;21.06;100.00;101163.41;5091556;28;20070;-80
2022/10/10 09:05:41;;;;;;;17.45;11.23;;;;;;;21.23;100.00;101153.03;5091413;28;20085;-79
2022/10/10 09:08:07;;;;;;;18.65;10.88;;;;;;;21.30;100.00;101165.56;5090113;28;20028;-76
2022/10/10 09:10:41;;;;;;;18.52;11.27;;;;;;;21.92;100.00;101167.34;4383517;28;10000827;-74
2022/10/10 09:13:35;;;;;;;17.00;10.65;;;;;;;21.58;100.00;101160.59;5065060;28;20175;-74
2022/10/10 09:16:32;;;;;;;17.02;10.88;;;;;;;20.81;100.00;101153.50;5067963;28;20745;-74
2022/10/10 09:19:05;;;;;;;17.02;11.30;;;;;;;21.17;100.00;101163.72;5070976;28;20094;-72
2022/10/10 09:21:35;;;;;;;13.00;10.82;;;;;;;21.06;100.00;101127.22;5071675;28;20593;-74
2022/10/10 09:24:07;;;;;;;12.55;10.55;;;;;;;21.44;100.00;101164.81;5054700;28;20502;-75
2022/10/10 09:26:48;;;;;;;14.77;10.88;;;;;;;21.75;100.00;101122.56;5071792;28;20048;-73
2022/10/10 09:29:32;;;;;;;13.05;10.63;;;;;;;21.40;100.00;101160.72;5071273;28;20380;-74
2022/10/10 09:32:13;;;;;;;17.80;10.52;;;;;;;22.32;100.00;101165.94;5070481;28;20032;-74
2022/10/10 09:34:44;;;;;;;14.77;10.50;;;;;;;22.10;100.00;101155.97;5052117;28;20037;-73
2022/10/10 09:37:37;;;;;;;12.70;10.35;;;;;;;22.20;100.00;101159.72;5052543;28;20882;-77
2022/10/10 09:40:11;;;;;;;20.33;11.23;;;;;;;22.54;100.00;101157.75;5049514;28;20048;-73
2022/10/10 09:42:38;;;;;;;17.10;10.40;;;;;;;21.83;100.00;101154.09;5076068;28;20094;-74
2022/10/10 09:45:51;;;;;;;15.13;10.60;;;;;;;21.54;100.00;101146.13;5114737;28;20119;-76
2022/10/10 09:48:18;;;;;;;17.02;10.35;;;;;;;21.81;100.00;101112.72;5090971;28;20059;-76
2022/10/10 09:50:44;;;;;;;11.85;10.07;;;;;;;23.16;100.00;101141.88;5113057;28;20032;-75
2022/10/10 09:53:15;;;;;;;14.35;9.93;;;;;;;22.40;100.00;101138.63;5114527;28;20050;-75
2022/10/10 09:55:43;;;;;;;14.07;10.05;;;;;;;21.53;100.00;101084.91;5114564;28;20030;-74
2022/10/10 09:58:28;;;;;;;18.08;10.50;;;;;;;22.07;100.00;101142.31;5114451;28;20035;-77
2022/10/10 10:00:54;;;;;;;14.77;9.95;;;;;;;22.75;100.00;101134.00;5114596;28;20082;-76
2022/10/10 10:03:21;;;;;;;20.20;10.35;;;;;;;23.37;100.00;101131.97;5114185;27;20514;-76
2022/10/10 10:05:59;;;;;;;15.93;10.50;;;;;;;22.85;100.00;101122.16;5114494;28;20035;-77
2022/10/10 10:08:30;;;;;;;16.85;10.25;;;;;;;22.48;100.00;101094.13;5113977;28;20038;-75
2022/10/10 10:10:57;;;;;;;;;;;;;;;22.85;100.00;101129.94;5114545;28;20023;-73
2022/10/10 10:13:27;;;;;;;15.45;10.02;;;;;;;22.73;100.00;101109.09;5113790;28;19912;-76
2022/10/10 10:16:00;;;;;;;14.73;10.50;;;;;;;22.95;99.13;101040.25;5114265;28;20538;-77
2022/10/10 10:18:27;;;;;;;13.68;10.45;;;;;;;23.01;98.66;101122.06;5114038;28;20027;-74
2022/10/10 10:21:02;;;;;;;14.48;9.25;;;;;;;23.43;100.00;101113.41;5114036;28;20028;-73
2022/10/10 10:23:33;;;;;;;12.20;10.43;;;;;;;23.20;100.00;101112.22;5112857;28;20041;-73
2022/10/10 10:26:12;;;;;;;13.93;10.05;;;;;;;22.73;100.00;101101.31;5113865;28;20431;-73
2022/10/10 10:28:41;;;;;;;13.32;10.57;;;;;;;22.32;100.00;101060.47;5113529;28;20081;-75
2022/10/10 10:31:45;;;;;;;12.98;9.73;;;;;;;23.76;95.94;101104.31;5114047;28;20118;-73
2022/10/10 10:34:40;;;;;;;10.60;9.50;;;;;;;23.60;91.72;101036.09;5113715;28;20027;-76
2022/10/10 10:37:08;;;;;;;16.75;10.48;;;;;;;23.97;90.63;101100.31;5113832;28;20397;-76
2022/10/10 10:40:10;;;;;;;12.20;9.85;;;;;;;23.42;98.96;101090.97;5111957;28;20044;-74
2022/10/10 10:42:57;;;;;;;19.58;10.13;;;;;;;23.43;95.06;101096.06;5111989;28;20425;-76
2022/10/10 10:45:50;;;;;;;13.25;9.82;;;;;;;24.50;85.33;101085.53;5113889;28;20110;-75
2022/10/10 10:48:32;;;;;;;15.00;9.98;;;;;;;23.82;90.82;101087.47;5113485;28;20036;-77
2022/10/10 10:51:18;;;;;;;13.43;9.93;;;;;;;24.34;80.91;101032.91;5113374;28;20031;-76
2022/10/10 10:53:50;;;;;;;14.30;9.27;;;;;;;23.97;83.41;101048.31;5113429;28;20031;-76
2022/10/10 10:56:36;;;;;;;12.90;9.38;;;;;;;24.30;83.88;101078.25;5113421;28;20032;-76
2022/10/10 10:59:02;;;;;;;15.48;9.45;;;;;;;24.46;81.34;101071.06;5113378;28;20177;-76
2022/10/10 11:02:01;;;;;;;15.80;9.57;;;;;;;24.52;79.84;101070.66;5112379;28;20099;-76
2022/10/10 11:04:50;;;;;;;14.45;9.30;;;;;;;23.90;85.30;101069.63;5112179;28;20034;-76
2022/10/10 11:07:21;;;;;;;13.82;9.60;;;;;;;24.03;81.44;101070.50;5113304;28;20020;-76
2022/10/10 11:10:07;;;;;;;14.43;9.52;;;;;;;24.77;77.47;101042.03;5111961;28;20031;-76
2022/10/10 11:12:32;;;;;;;14.35;9.38;;;;;;;23.73;86.91;101065.53;5112064;28;20023;-75
2022/10/10 11:15:04;;;;;;;12.95;9.20;;;;;;;24.25;80.21;101060.34;5113362;28;20489;-76
2022/10/10 11:17:34;;;;;;;;;;;;;;;24.07;81.23;101061.56;5112515;28;20088;-75